Time;durP1;ratioP1;P1;durP2;ratioP2;P2;SDS_P1;SDS_P2;PMS_P1;PMS_P2;Temp;Humidity;BMP_temperature;BMP_pressure;BME280_temperature;BME280_humidity;BME280_pressure;Samples;Min_cycle;Max_cycle;Signal;HPM_P1;HPM_P2
2023/01/09 00:01:47;;;;;;;2.42;0.50;;;11.70;71.90;;;;;;5049725;28;20043;-51
2023/01/09 00:04:13;;;;;;;2.70;0.30;;;11.70;71.90;;;;;;5043347;28;20080;-48
2023/01/09 00:06:52;;;;;;;0.17;0.13;;;11.70;71.50;;;;;;5049756;28;20041;-51
2023/01/09 00:09:21;;;;;;;0.40;0.20;;;11.70;71.20;;;;;;5047029;28;20040;-52
2023/01/09 00:11:51;;;;;;;1.27;0.40;;;11.70;71.20;;;;;;5046902;28;20051;-49
2023/01/09 00:14:19;;;;;;;0.20;0.20;;;11.60;71.10;;;;;;5032164;28;20041;-50
2023/01/09 00:16:48;;;;;;;0.47;0.43;;;11.60;71.00;;;;;;5043734;28;20041;-51
2023/01/09 00:19:15;;;;;;;1.10;0.10;;;11.60;71.10;;;;;;5048683;28;20040;-54
2023/01/09 00:21:47;;;;;;;0.10;0.10;;;11.50;71.10;;;;;;5049457;28;20051;-48
2023/01/09 00:24:14;;;;;;;0.10;0.10;;;11.50;71.20;;;;;;5043192;28;20041;-51
2023/01/09 00:26:57;;;;;;;0.20;0.20;;;11.50;71.10;;;;;;5049519;28;20130;-49
2023/01/09 00:29:24;;;;;;;0.28;0.28;;;11.50;71.20;;;;;;5041881;28;20044;-47
2023/01/09 00:31:51;;;;;;;0.10;0.10;;;11.40;71.00;;;;;;5049349;28;20053;-53
2023/01/09 00:34:17;;;;;;;0.40;0.10;;;11.40;71.10;;;;;;5044032;28;20047;-49
2023/01/09 00:36:54;;;;;;;0.13;0.13;;;11.40;71.10;;;;;;5049627;28;20127;-52
2023/01/09 00:39:31;;;;;;;0.40;0.20;;;11.40;71.10;;;;;;5048767;28;20036;-48
2023/01/09 00:42:05;;;;;;;0.70;0.25;;;11.40;71.20;;;;;;5045688;28;20057;-50
2023/01/09 00:44:41;;;;;;;0.15;0.10;;;11.30;70.90;;;;;;5049977;28;20044;-52
2023/01/09 00:47:16;;;;;;;0.32;0.15;;;11.30;71.10;;;;;;5049077;28;20056;-49
2023/01/09 00:49:45;;;;;;;1.52;0.28;;;11.30;71.80;;;;;;5049068;28;20044;-51
2023/01/09 00:52:13;;;;;;;0.30;0.30;;;11.20;71.10;;;;;;5043800;28;20512;-48
2023/01/09 00:54:41;;;;;;;0.75;0.45;;;11.20;71.10;;;;;;5049521;28;20044;-53
2023/01/09 00:57:12;;;;;;;0.35;0.30;;;11.20;71.10;;;;;;5031463;28;20043;-50
2023/01/09 00:59:40;;;;;;;1.00;0.52;;;11.20;71.20;;;;;;5049219;28;20080;-49
2023/01/09 01:02:07;;;;;;;1.25;0.60;;;11.20;71.20;;;;;;5041841;28;20076;-48
2023/01/09 01:07:37;;;;;;;0.70;0.45;;;11.20;71.20;;;;;;5049439;28;20037;-49
2023/01/09 01:10:21;;;;;;;0.82;0.38;;;11.20;71.10;;;;;;5039292;28;20095;-49
2023/01/09 01:12:50;;;;;;;1.92;0.50;;;11.20;71.20;;;;;;5049506;28;20539;-52
2023/01/09 01:15:20;;;;;;;0.90;0.40;;;11.10;70.70;;;;;;5040278;28;20044;-48
2023/01/09 01:17:50;;;;;;;0.68;0.50;;;11.10;70.70;;;;;;5046026;28;20045;-49
2023/01/09 01:20:20;;;;;;;0.82;0.47;;;11.10;70.80;;;;;;5043707;28;20040;-49
2023/01/09 01:22:49;;;;;;;1.40;0.70;;;11.00;70.60;;;;;;5049941;28;20086;-53
2023/01/09 01:25:16;;;;;;;1.83;0.55;;;11.00;70.70;;;;;;5051091;28;20056;-50
2023/01/09 01:27:45;;;;;;;0.95;0.50;;;11.00;70.60;;;;;;5051077;28;20045;-52
2023/01/09 01:30:15;;;;;;;1.23;0.65;;;11.00;70.50;;;;;;5052386;28;20048;-49
2023/01/09 01:32:50;;;;;;;2.78;0.52;;;10.90;70.40;;;;;;5053181;28;20119;-48
2023/01/09 01:35:27;;;;;;;1.17;0.68;;;10.90;70.40;;;;;;5052422;28;20116;-50
2023/01/09 01:37:58;;;;;;;0.82;0.35;;;10.80;70.50;;;;;;5043518;28;20075;-50
2023/01/09 01:40:25;;;;;;;3.42;0.65;;;10.80;70.60;;;;;;5043985;28;20052;-49
2023/01/09 01:42:54;;;;;;;1.33;0.50;;;10.80;70.60;;;;;;5052739;28;20043;-50
2023/01/09 01:45:23;;;;;;;1.08;0.47;;;10.80;70.70;;;;;;5051887;28;20661;-50
2023/01/09 01:48:09;;;;;;;1.48;0.57;;;10.70;70.70;;;;;;5049512;28;20065;-48
2023/01/09 01:50:45;;;;;;;1.15;0.47;;;10.70;70.90;;;;;;5045921;28;20124;-52
2023/01/09 01:53:28;;;;;;;0.82;0.63;;;10.60;70.80;;;;;;5052632;28;20484;-51
2023/01/09 01:56:00;;;;;;;2.03;0.80;;;10.60;70.90;;;;;;5050529;28;20041;-49
2023/01/09 01:58:27;;;;;;;2.95;0.70;;;10.50;70.80;;;;;;5048935;28;20056;-49
2023/01/09 02:00:56;;;;;;;2.50;0.70;;;10.50;70.70;;;;;;5052550;28;20405;-49
2023/01/09 02:03:29;;;;;;;1.38;0.50;;;10.40;70.70;;;;;;5045196;28;20033;-48
2023/01/09 02:05:56;;;;;;;1.25;0.52;;;10.40;70.80;;;;;;5045433;28;20056;-47
2023/01/09 02:08:25;;;;;;;2.25;0.70;;;10.30;70.80;;;;;;5040934;28;20045;-52
2023/01/09 02:10:53;;;;;;;1.48;0.90;;;10.30;70.90;;;;;;5051411;28;20083;-49
2023/01/09 02:13:20;;;;;;;2.03;1.10;;;10.30;71.10;;;;;;5034781;28;20045;-49
2023/01/09 02:16:24;;;;;;;2.55;1.10;;;10.20;71.20;;;;;;5038050;28;20409;-49
2023/01/09 02:19:22;;;;;;;2.10;0.93;;;10.20;71.80;;;;;;5047849;28;20083;-51
2023/01/09 02:22:06;;;;;;;1.58;0.60;;;10.20;71.80;;;;;;5047861;28;20077;-51
2023/01/09 02:25:13;;;;;;;1.35;0.50;;;10.20;72.70;;;;;;5046281;28;20060;-48
2023/01/09 02:28:20;;;;;;;1.88;1.08;;;10.20;72.40;;;;;;5029467;28;20052;-49
2023/01/09 02:31:12;;;;;;;0.80;0.68;;;10.20;72.30;;;;;;5046935;28;20045;-50
2023/01/09 02:33:54;;;;;;;2.08;0.73;;;10.20;71.90;;;;;;5046373;28;20045;-52
2023/01/09 02:36:30;;;;;;;1.35;0.75;;;10.20;72.00;;;;;;5048390;28;20047;-49
2023/01/09 02:39:21;;;;;;;0.80;0.80;;;10.30;72.00;;;;;;5051754;28;20047;-47
2023/01/09 02:42:21;;;;;;;2.97;1.13;;;10.20;72.20;;;;;;5047003;28;20045;-48
2023/01/09 02:44:51;;;;;;;2.17;1.02;;;10.30;72.00;;;;;;5042350;28;20518;-49
2023/01/09 02:47:19;;;;;;;2.03;1.10;;;10.30;71.40;;;;;;5051651;28;20049;-53
2023/01/09 02:49:51;;;;;;;1.27;0.98;;;10.30;71.40;;;;;;5051052;28;20490;-52
2023/01/09 02:52:46;;;;;;;2.95;1.17;;;10.20;71.40;;;;;;5046210;28;20131;-50
2023/01/09 02:55:41;;;;;;;2.58;0.80;;;10.20;71.70;;;;;;5049068;28;20045;-48
2023/01/09 02:58:12;;;;;;;1.58;0.93;;;10.20;71.30;;;;;;5051914;28;20072;-53
2023/01/09 03:00:56;;;;;;;4.03;1.02;;;10.10;71.00;;;;;;5050600;28;20049;-52
2023/01/09 03:03:45;;;;;;;1.25;0.85;;;10.10;71.40;;;;;;5040551;28;20044;-53
2023/01/09 03:06:27;;;;;;;2.67;0.98;;;10.10;71.20;;;;;;5049894;28;20056;-52
2023/01/09 03:09:03;;;;;;;2.00;1.10;;;10.00;71.10;;;;;;5051465;28;20102;-50
2023/01/09 03:11:39;;;;;;;3.05;1.00;;;10.00;71.20;;;;;;5042482;28;20103;-53
2023/01/09 03:14:14;;;;;;;1.02;0.80;;;10.00;71.30;;;;;;5045921;28;20084;-50
2023/01/09 03:16:47;;;;;;;2.88;1.30;;;9.90;71.30;;;;;;5044948;28;20064;-52
2023/01/09 03:19:20;;;;;;;1.13;1.00;;;9.90;71.30;;;;;;5051005;28;20123;-51
2023/01/09 03:21:48;;;;;;;3.70;1.20;;;9.90;71.40;;;;;;5051182;28;20043;-50
2023/01/09 03:24:17;;;;;;;1.88;1.20;;;9.80;71.30;;;;;;5047610;28;20167;-53
2023/01/09 03:26:44;;;;;;;2.55;1.25;;;9.80;71.40;;;;;;5048413;28;20055;-53
2023/01/09 03:29:11;;;;;;;3.35;1.00;;;9.70;71.40;;;;;;5050573;28;20055;-52
2023/01/09 03:31:38;;;;;;;1.95;1.45;;;9.70;71.40;;;;;;5045551;28;20264;-52
2023/01/09 03:34:05;;;;;;;5.85;1.98;;;9.70;71.50;;;;;;5050752;28;20048;-53
2023/01/09 03:36:40;;;;;;;4.10;2.33;;;9.60;71.50;;;;;;5050227;28;20482;-50
2023/01/09 03:39:10;;;;;;;3.40;2.10;;;9.70;71.80;;;;;;5050343;28;20045;-51
2023/01/09 03:41:45;;;;;;;4.57;1.77;;;9.60;71.50;;;;;;5044454;28;20041;-52
2023/01/09 03:44:13;;;;;;;2.95;1.17;;;9.60;71.70;;;;;;5050568;28;20501;-48
2023/01/09 03:46:40;;;;;;;2.45;1.40;;;9.50;71.50;;;;;;5049372;28;20055;-53
2023/01/09 03:49:09;;;;;;;2.90;1.17;;;9.50;71.60;;;;;;5048623;28;20543;-50
2023/01/09 03:51:38;;;;;;;2.00;1.13;;;9.50;71.70;;;;;;5048627;28;20033;-51
2023/01/09 03:54:06;;;;;;;3.30;1.30;;;9.40;71.70;;;;;;5050096;28;20048;-51
2023/01/09 03:56:35;;;;;;;3.20;1.30;;;9.40;71.80;;;;;;5049899;28;20037;-51
2023/01/09 03:59:04;;;;;;;2.03;1.05;;;9.40;71.80;;;;;;5047391;28;20033;-53
2023/01/09 04:01:32;;;;;;;0.93;0.75;;;9.40;71.80;;;;;;5050203;28;20041;-51
2023/01/09 04:03:58;;;;;;;2.80;1.10;;;9.30;71.80;;;;;;5050468;28;20116;-50
2023/01/09 04:06:25;;;;;;;2.13;1.00;;;9.30;71.90;;;;;;5050347;28;20413;-54
2023/01/09 04:08:54;;;;;;;2.60;0.82;;;9.30;72.00;;;;;;5040510;28;20127;-52
2023/01/09 04:11:25;;;;;;;3.63;1.00;;;9.30;72.10;;;;;;5043174;28;20041;-53
2023/01/09 04:13:54;;;;;;;2.25;0.80;;;9.30;72.10;;;;;;5046125;28;20044;-52
2023/01/09 04:16:21;;;;;;;2.40;0.80;;;9.30;72.10;;;;;;5042345;28;20037;-53
2023/01/09 04:18:50;;;;;;;2.55;0.90;;;9.30;72.20;;;;;;5049289;28;20512;-52
2023/01/09 04:21:17;;;;;;;1.90;0.85;;;9.30;72.40;;;;;;5048629;28;20037;-52
2023/01/09 04:23:44;;;;;;;2.20;0.75;;;9.30;72.60;;;;;;5049045;28;20116;-52
2023/01/09 04:26:10;;;;;;;1.20;0.93;;;9.30;72.70;;;;;;5045395;28;20045;-52
2023/01/09 04:28:41;;;;;;;2.88;1.08;;;9.30;72.60;;;;;;5029804;28;20040;-53
2023/01/09 04:31:08;;;;;;;3.13;0.88;;;9.30;72.50;;;;;;5049380;28;20124;-50
2023/01/09 04:33:35;;;;;;;4.57;1.52;;;9.40;72.50;;;;;;5049226;28;20501;-52
2023/01/09 04:36:02;;;;;;;3.05;1.42;;;9.40;72.50;;;;;;5046330;28;20401;-49
2023/01/09 04:38:28;;;;;;;3.03;1.30;;;9.40;72.40;;;;;;5029633;28;20040;-52
2023/01/09 04:40:57;;;;;;;5.28;1.40;;;9.50;72.40;;;;;;5048899;28;20051;-48
2023/01/09 04:43:24;;;;;;;4.05;1.38;;;9.60;72.40;;;;;;5040276;28;20051;-52
2023/01/09 04:45:52;;;;;;;4.32;0.93;;;9.60;72.30;;;;;;5025001;28;20057;-52
2023/01/09 04:48:21;;;;;;;4.30;1.33;;;9.60;72.20;;;;;;5049507;28;20527;-49
2023/01/09 04:50:47;;;;;;;2.72;0.80;;;9.60;72.10;;;;;;5048621;28;20449;-50
2023/01/09 04:53:14;;;;;;;2.45;0.77;;;9.70;72.00;;;;;;5048944;28;20476;-49
2023/01/09 04:55:41;;;;;;;4.75;0.60;;;9.70;71.80;;;;;;5044158;28;20147;-52
2023/01/09 04:58:11;;;;;;;1.33;0.45;;;9.80;71.80;;;;;;5049574;28;20047;-52
2023/01/09 05:00:40;;;;;;;1.52;0.75;;;9.80;71.70;;;;;;5048629;28;20120;-50
2023/01/09 05:03:09;;;;;;;3.40;0.47;;;9.80;71.60;;;;;;5049259;28;20043;-49
2023/01/09 05:05:35;;;;;;;1.35;0.80;;;9.90;71.60;;;;;;5042268;28;20045;-50
2023/01/09 05:08:02;;;;;;;3.50;0.80;;;9.90;71.60;;;;;;5048490;28;20103;-48
2023/01/09 05:10:31;;;;;;;4.40;1.05;;;10.00;71.50;;;;;;5047598;28;20071;-52
2023/01/09 05:12:57;;;;;;;2.95;0.70;;;10.00;71.40;;;;;;5049426;28;20625;-48
2023/01/09 05:15:27;;;;;;;3.92;1.08;;;10.00;71.30;;;;;;5037262;28;20051;-49
2023/01/09 05:17:55;;;;;;;3.42;0.95;;;10.00;71.20;;;;;;5043457;28;20047;-49
2023/01/09 05:20:22;;;;;;;2.65;0.75;;;10.10;71.10;;;;;;5048573;28;20048;-50
2023/01/09 05:22:49;;;;;;;5.55;1.45;;;10.10;71.00;;;;;;5047110;28;20290;-53
2023/01/09 05:25:17;;;;;;;4.80;0.90;;;10.10;70.90;;;;;;5025407;28;20045;-53
2023/01/09 05:27:47;;;;;;;2.55;0.85;;;10.10;70.80;;;;;;5047411;28;20119;-48
2023/01/09 05:30:14;;;;;;;1.95;0.70;;;10.20;70.80;;;;;;5047284;28;20120;-49
2023/01/09 05:32:46;;;;;;;3.85;0.80;;;10.20;70.70;;;;;;5047124;28;20053;-49
2023/01/09 05:35:13;;;;;;;1.73;0.98;;;10.30;70.80;;;;;;5048511;28;20501;-49
2023/01/09 05:37:39;;;;;;;3.50;1.02;;;10.30;70.70;;;;;;5049121;28;20055;-50
2023/01/09 05:40:06;;;;;;;1.42;0.82;;;10.30;70.60;;;;;;5048921;28;20112;-49
2023/01/09 05:42:36;;;;;;;4.55;1.63;;;10.30;70.40;;;;;;5045968;28;20061;-49
2023/01/09 05:45:06;;;;;;;3.95;1.20;;;10.30;70.40;;;;;;5044421;28;20053;-51
2023/01/09 05:47:36;;;;;;;3.17;1.13;;;10.30;70.40;;;;;;5038515;28;20052;-50
2023/01/09 05:50:03;;;;;;;6.03;1.42;;;10.30;70.40;;;;;;5042800;28;20060;-49
2023/01/09 05:52:32;;;;;;;4.22;1.30;;;10.30;70.40;;;;;;5048707;28;20048;-48
2023/01/09 05:55:01;;;;;;;3.70;1.63;;;10.30;70.40;;;;;;5048720;28;20128;-50
2023/01/09 05:57:28;;;;;;;2.65;0.80;;;10.40;70.40;;;;;;5048939;28;20044;-48
2023/01/09 05:59:58;;;;;;;5.13;1.05;;;10.40;70.30;;;;;;5042934;28;20080;-48
2023/01/09 06:02:25;;;;;;;3.45;1.20;;;10.40;70.30;;;;;;5043000;28;20531;-49
2023/01/09 06:04:56;;;;;;;3.22;1.05;;;10.40;70.30;;;;;;5048575;28;20037;-47
2023/01/09 06:07:23;;;;;;;3.10;1.08;;;10.40;70.30;;;;;;5048546;28;20045;-50
2023/01/09 06:09:52;;;;;;;2.70;1.30;;;10.50;70.20;;;;;;5036067;28;20112;-48
2023/01/09 06:12:19;;;;;;;4.10;1.55;;;10.50;70.20;;;;;;5047734;28;20056;-49
2023/01/09 06:14:46;;;;;;;2.25;0.88;;;10.50;70.10;;;;;;5045760;28;20147;-48
2023/01/09 06:17:21;;;;;;;3.63;1.20;;;10.50;70.00;;;;;;5045417;28;20164;-52
2023/01/09 06:19:50;;;;;;;8.73;1.58;;;10.50;70.00;;;;;;5040159;28;20033;-49
2023/01/09 06:22:17;;;;;;;3.25;0.90;;;10.50;69.90;;;;;;5041876;28;20048;-52
2023/01/09 06:24:46;;;;;;;2.55;0.90;;;10.60;70.00;;;;;;5046861;28;20417;-48
2023/01/09 06:27:15;;;;;;;4.78;1.48;;;10.60;69.90;;;;;;5050738;28;20432;-50
2023/01/09 06:29:41;;;;;;;2.58;0.77;;;10.60;69.80;;;;;;5026670;28;20063;-48
2023/01/09 06:32:08;;;;;;;3.92;1.23;;;10.60;69.80;;;;;;5044896;28;20077;-50
2023/01/09 06:34:35;;;;;;;4.95;1.33;;;10.60;69.80;;;;;;5049693;28;20125;-50
2023/01/09 06:37:04;;;;;;;2.67;0.93;;;10.60;69.60;;;;;;5050165;28;20458;-51
2023/01/09 06:39:33;;;;;;;4.25;1.20;;;10.60;69.40;;;;;;5042542;28;20540;-46
2023/01/09 06:42:07;;;;;;;5.05;1.25;;;10.60;69.40;;;;;;5050231;28;20051;-52
2023/01/09 06:44:36;;;;;;;5.25;1.13;;;10.70;69.40;;;;;;5044006;28;20041;-52
2023/01/09 06:47:03;;;;;;;3.40;1.45;;;10.70;69.40;;;;;;5049765;28;20048;-52
2023/01/09 06:49:30;;;;;;;4.43;1.60;;;10.70;69.50;;;;;;5046047;28;20120;-52
2023/01/09 06:52:04;;;;;;;4.95;1.48;;;10.70;69.40;;;;;;5049748;28;20501;-49
2023/01/09 06:54:33;;;;;;;1.10;0.95;;;10.70;69.40;;;;;;5043176;28;20509;-52
2023/01/09 06:57:02;;;;;;;6.75;1.23;;;10.70;69.30;;;;;;5046736;28;20048;-50
2023/01/09 06:59:31;;;;;;;3.33;1.33;;;10.70;69.30;;;;;;5047261;28;20037;-48
2023/01/09 07:01:58;;;;;;;4.53;1.30;;;10.70;69.10;;;;;;5042661;28;20260;-51
2023/01/09 07:04:25;;;;;;;5.90;1.80;;;10.70;68.90;;;;;;5045492;28;20053;-52
2023/01/09 07:06:55;;;;;;;5.15;1.50;;;10.80;68.90;;;;;;5047946;28;20087;-52
2023/01/09 07:09:22;;;;;;;3.35;1.45;;;10.80;68.90;;;;;;5047835;28;20061;-52
2023/01/09 07:11:49;;;;;;;5.30;1.48;;;10.80;68.80;;;;;;5050357;28;20127;-49
2023/01/09 07:14:15;;;;;;;2.65;1.05;;;10.80;68.80;;;;;;5047334;28;20044;-50
2023/01/09 07:16:44;;;;;;;4.80;1.17;;;10.80;68.80;;;;;;5043455;28;20045;-49
2023/01/09 07:19:18;;;;;;;5.22;1.48;;;10.80;68.80;;;;;;5044089;28;20566;-48
2023/01/09 07:21:45;;;;;;;3.70;1.75;;;10.80;68.60;;;;;;5041232;28;20069;-49
2023/01/09 07:24:14;;;;;;;4.55;1.60;;;10.80;68.50;;;;;;5040630;28;20055;-52
2023/01/09 07:26:40;;;;;;;5.95;1.80;;;10.80;68.50;;;;;;5046488;28;20077;-53
2023/01/09 07:29:12;;;;;;;3.67;1.48;;;10.80;68.40;;;;;;5038675;28;20072;-49
2023/01/09 07:31:38;;;;;;;5.20;1.58;;;10.80;68.30;;;;;;5041755;28;20061;-48
2023/01/09 07:34:05;;;;;;;3.25;1.23;;;10.80;68.30;;;;;;5031076;28;20052;-49
2023/01/09 07:36:33;;;;;;;3.63;1.20;;;10.90;68.30;;;;;;5049183;28;20060;-52
2023/01/09 07:39:08;;;;;;;7.03;1.45;;;10.90;68.30;;;;;;5051757;28;20091;-47
2023/01/09 07:41:36;;;;;;;3.72;1.30;;;10.90;68.40;;;;;;5043507;28;20044;-50
2023/01/09 07:44:08;;;;;;;5.47;1.50;;;10.90;68.30;;;;;;5031733;28;20505;-52
2023/01/09 07:46:39;;;;;;;3.10;1.52;;;10.90;68.10;;;;;;5032450;28;20695;-51
2023/01/09 07:49:08;;;;;;;5.20;1.23;;;10.90;68.10;;;;;;5049683;28;20067;-49
2023/01/09 07:51:34;;;;;;;5.07;1.23;;;11.00;68.20;;;;;;5049756;28;20540;-49
2023/01/09 07:54:01;;;;;;;6.43;1.50;;;11.00;68.00;;;;;;5040813;28;20063;-53
2023/01/09 07:56:28;;;;;;;4.88;0.98;;;10.90;68.00;;;;;;5031921;28;20128;-49
2023/01/09 07:58:59;;;;;;;5.65;1.17;;;11.00;68.00;;;;;;5050990;28;20120;-50
2023/01/09 08:01:31;;;;;;;5.97;1.60;;;11.00;68.00;;;;;;5045390;28;20037;-52
2023/01/09 08:03:58;;;;;;;;;;;11.00;67.80;;;;;;5050415;28;20396;-51
2023/01/09 08:06:25;;;;;;;5.35;1.48;;;11.10;67.90;;;;;;5049010;28;20416;-53
2023/01/09 08:08:51;;;;;;;5.05;1.70;;;11.00;67.60;;;;;;5049570;28;20116;-52
2023/01/09 08:11:24;;;;;;;3.35;1.55;;;11.10;67.60;;;;;;5042296;28;20048;-53
2023/01/09 08:13:51;;;;;;;6.88;1.30;;;11.00;67.70;;;;;;5047075;28;20128;-52
2023/01/09 08:16:21;;;;;;;4.25;1.40;;;11.10;67.70;;;;;;5044299;28;20060;-50
2023/01/09 08:18:51;;;;;;;3.47;1.15;;;11.10;67.90;;;;;;5050244;28;20401;-51
2023/01/09 08:21:17;;;;;;;4.50;1.38;;;11.10;67.70;;;;;;5048683;28;20043;-49
2023/01/09 08:23:45;;;;;;;2.15;0.80;;;11.10;67.70;;;;;;5049142;28;20112;-53
2023/01/09 08:26:14;;;;;;;3.17;1.35;;;11.10;67.70;;;;;;5044263;28;20519;-49
2023/01/09 08:28:47;;;;;;;2.08;0.88;;;11.10;67.60;;;;;;5050527;28;20044;-54
2023/01/09 08:31:14;;;;;;;3.28;1.20;;;11.10;67.60;;;;;;5043091;28;20033;-51
2023/01/09 08:33:41;;;;;;;5.60;1.90;;;11.20;67.60;;;;;;5049342;28;20459;-50
2023/01/09 08:36:09;;;;;;;3.70;0.93;;;11.10;67.50;;;;;;5032543;28;20037;-54
2023/01/09 08:38:36;;;;;;;5.25;1.70;;;11.20;67.60;;;;;;5046611;28;20079;-53
2023/01/09 08:47:05;;;;;;;4.78;1.05;;;11.10;67.60;;;;;;4987553;28;20042;-52
2023/01/09 08:49:37;;;;;;;4.60;1.02;;;11.10;67.70;;;;;;5036791;28;20044;-50
2023/01/09 08:52:05;;;;;;;1.70;0.68;;;11.20;67.60;;;;;;5047861;28;20107;-49
2023/01/09 08:54:32;;;;;;;4.32;1.80;;;11.10;67.60;;;;;;5050485;28;20044;-49
2023/01/09 08:56:59;;;;;;;4.57;1.77;;;11.10;67.60;;;;;;5031627;28;20055;-52
2023/01/09 08:59:26;;;;;;;3.90;1.52;;;11.20;67.70;;;;;;5047746;28;20041;-51
2023/01/09 09:02:06;;;;;;;2.50;1.48;;;11.20;67.90;;;;;;5047254;28;20040;-48
2023/01/09 09:04:35;;;;;;;6.82;2.30;;;11.20;68.00;;;;;;5046584;28;20037;-49
2023/01/09 09:07:06;;;;;;;3.60;1.25;;;11.20;67.90;;;;;;5049232;28;20080;-50
2023/01/09 09:09:34;;;;;;;5.32;1.40;;;11.30;68.00;;;;;;5047050;28;20515;-52
2023/01/09 09:12:01;;;;;;;4.35;1.40;;;11.30;67.80;;;;;;5049263;28;20048;-54
2023/01/09 09:17:13;;;;;;;5.40;0.80;;;11.40;67.60;;;;;;5043926;28;20041;-50
2023/01/09 09:19:46;;;;;;;5.10;1.48;;;11.50;67.30;;;;;;5050126;28;20060;-53
2023/01/09 09:22:13;;;;;;;6.13;1.40;;;11.50;67.10;;;;;;5049518;28;20095;-53
2023/01/09 09:24:45;;;;;;;2.80;1.25;;;11.50;67.00;;;;;;5047138;28;20037;-52
2023/01/09 09:27:14;;;;;;;3.55;1.58;;;11.50;66.80;;;;;;5038717;28;20041;-54
2023/01/09 09:29:44;;;;;;;3.42;1.20;;;11.50;66.70;;;;;;5031960;28;20079;-52
2023/01/09 09:32:10;;;;;;;3.70;1.30;;;11.50;66.70;;;;;;5048849;28;20040;-53
2023/01/09 09:34:40;;;;;;;4.10;1.58;;;11.50;66.60;;;;;;5048909;28;20044;-50
2023/01/09 09:37:10;;;;;;;3.40;1.10;;;11.50;66.70;;;;;;5037465;28;20045;-50
2023/01/09 09:39:43;;;;;;;3.72;1.42;;;11.50;66.60;;;;;;5042303;28;20099;-49
2023/01/09 09:45:43;;;;;;;5.55;1.65;;;11.50;66.60;;;;;;5036216;28;20045;-49
2023/01/09 09:48:33;;;;;;;2.75;1.30;;;11.60;66.80;;;;;;5049667;28;20049;-53
2023/01/09 09:51:20;;;;;;;3.72;0.88;;;11.60;66.60;;;;;;5052648;28;20037;-48
2023/01/09 09:53:59;;;;;;;3.67;1.30;;;11.50;66.60;;;;;;5044125;28;20048;-52
2023/01/09 09:56:33;;;;;;;6.80;1.40;;;11.40;66.50;;;;;;5050824;28;20055;-50
2023/01/09 09:59:14;;;;;;;3.10;1.20;;;11.60;66.60;;;;;;5053462;28;20040;-52
2023/01/09 10:01:47;;;;;;;4.55;1.60;;;11.60;66.70;;;;;;5038621;28;20147;-51
2023/01/09 10:04:22;;;;;;;2.63;0.98;;;11.60;66.80;;;;;;5050427;28;20041;-56
2023/01/09 10:06:58;;;;;;;4.47;1.15;;;11.60;66.60;;;;;;5050445;28;20053;-49
2023/01/09 10:09:49;;;;;;;3.85;1.33;;;11.60;66.50;;;;;;5053034;28;20132;-52
2023/01/09 10:12:28;;;;;;;3.47;1.30;;;11.60;66.40;;;;;;5051990;28;20080;-49
2023/01/09 10:14:59;;;;;;;1.98;0.95;;;11.60;66.10;;;;;;5044987;28;20055;-52
2023/01/09 10:17:58;;;;;;;2.08;1.20;;;11.60;66.30;;;;;;5048522;28;20519;-49
2023/01/09 10:20:51;;;;;;;5.07;1.67;;;11.70;66.00;;;;;;5052723;28;20041;-49
2023/01/09 10:23:44;;;;;;;5.63;1.20;;;11.70;66.50;;;;;;5040086;28;20064;-52
2023/01/09 10:26:33;;;;;;;4.45;1.88;;;11.70;66.20;;;;;;5047779;28;20132;-53
2023/01/09 10:29:23;;;;;;;2.38;1.23;;;11.80;66.30;;;;;;5047750;28;20584;-50
2023/01/09 10:32:26;;;;;;;4.78;1.50;;;11.80;66.20;;;;;;5043034;28;20045;-51
2023/01/09 10:35:04;;;;;;;3.03;1.15;;;11.80;65.90;;;;;;5027429;28;20107;-51
2023/01/09 10:37:36;;;;;;;2.45;0.85;;;11.90;66.10;;;;;;5051310;28;20558;-52
2023/01/09 10:40:20;;;;;;;5.32;1.00;;;11.90;66.10;;;;;;5041739;28;20099;-51
2023/01/09 10:43:03;;;;;;;1.60;0.80;;;11.90;65.60;;;;;;5044546;28;20511;-51
2023/01/09 10:45:56;;;;;;;4.07;1.25;;;12.00;65.60;;;;;;5044093;28;20037;-51
2023/01/09 10:48:33;;;;;;;3.63;1.02;;;12.00;65.40;;;;;;5029294;28;20072;-54
2023/01/09 10:51:37;;;;;;;4.22;1.05;;;12.00;65.40;;;;;;5046311;28;20124;-52
2023/01/09 10:54:17;;;;;;;1.85;0.73;;;12.00;65.20;;;;;;5045544;28;20041;-53
2023/01/09 10:56:55;;;;;;;3.28;1.08;;;12.20;65.40;;;;;;5044389;28;20390;-53
2023/01/09 10:59:23;;;;;;;6.05;1.25;;;12.10;65.70;;;;;;5051000;28;20049;-52
2023/01/09 11:01:50;;;;;;;4.85;1.48;;;12.10;65.30;;;;;;5037425;28;20060;-51
2023/01/09 11:04:27;;;;;;;2.72;1.02;;;12.00;65.10;;;;;;5034675;28;20135;-51
2023/01/09 11:07:07;;;;;;;1.58;1.05;;;12.00;64.60;;;;;;5046071;28;20044;-52
2023/01/09 11:09:58;;;;;;;2.67;0.70;;;12.00;64.50;;;;;;5051321;28;20037;-53
2023/01/09 11:12:28;;;;;;;2.88;0.70;;;12.00;65.00;;;;;;5049373;28;20051;-49
2023/01/09 11:15:22;;;;;;;1.70;0.93;;;11.90;64.40;;;;;;5041314;28;20037;-53
2023/01/09 11:17:53;;;;;;;1.90;0.70;;;11.90;64.00;;;;;;5047834;28;20044;-52
2023/01/09 11:20:26;;;;;;;6.60;1.00;;;11.90;64.10;;;;;;5045468;28;20038;-54
2023/01/09 11:22:54;;;;;;;;;;;11.90;64.40;;;;;;5051277;28;20049;-51
2023/01/09 11:25:27;;;;;;;3.63;0.80;;;11.90;64.70;;;;;;5049971;28;19927;-52
2023/01/09 11:28:07;;;;;;;1.40;0.75;;;11.90;64.50;;;;;;5049058;28;20049;-48
2023/01/09 11:30:49;;;;;;;2.33;0.75;;;11.90;64.30;;;;;;5049521;28;20094;-52
2023/01/09 11:33:23;;;;;;;1.80;0.47;;;11.90;65.20;;;;;;5052126;28;20571;-52
2023/01/09 11:36:03;;;;;;;1.98;0.60;;;11.90;64.40;;;;;;5044337;28;20477;-52
2023/01/09 11:38:45;;;;;;;2.78;0.60;;;11.90;64.00;;;;;;5042966;28;20559;-51
2023/01/09 11:41:27;;;;;;;0.52;0.50;;;11.90;64.20;;;;;;5047717;28;20771;-52
2023/01/09 11:43:57;;;;;;;2.20;0.60;;;11.90;63.80;;;;;;5051052;28;20037;-52
2023/01/09 11:46:40;;;;;;;0.98;0.47;;;11.90;63.90;;;;;;5050685;28;20044;-51
2023/01/09 11:49:21;;;;;;;1.05;0.65;;;11.90;63.80;;;;;;5048052;28;20075;-52
2023/01/09 11:52:21;;;;;;;1.48;0.90;;;11.90;63.70;;;;;;5044223;28;20052;-52
2023/01/09 11:54:55;;;;;;;1.77;0.60;;;11.90;63.70;;;;;;5050414;28;20072;-52
2023/01/09 11:57:23;;;;;;;1.50;0.68;;;11.90;64.20;;;;;;5040236;28;20120;-53
2023/01/09 11:59:58;;;;;;;2.88;0.65;;;11.90;63.90;;;;;;5044294;28;20055;-49
2023/01/09 12:02:47;;;;;;;2.60;1.33;;;12.00;63.90;;;;;;5050898;28;20055;-52
2023/01/09 12:05:28;;;;;;;4.88;1.13;;;12.00;63.60;;;;;;5049724;28;20086;-50
2023/01/09 12:08:20;;;;;;;1.52;0.80;;;12.00;63.80;;;;;;5048369;28;20052;-50
2023/01/09 12:11:10;;;;;;;3.33;0.87;;;12.00;63.70;;;;;;5048324;28;20045;-49
2023/01/09 12:13:47;;;;;;;1.27;0.73;;;12.00;63.90;;;;;;5047413;28;20287;-50
2023/01/09 12:16:39;;;;;;;1.95;0.90;;;12.00;64.00;;;;;;5037378;28;20119;-52
2023/01/09 12:19:25;;;;;;;2.60;0.85;;;12.10;63.80;;;;;;5032939;28;20041;-50
2023/01/09 12:22:05;;;;;;;2.33;1.00;;;12.10;63.90;;;;;;5025222;28;20520;-51
2023/01/09 12:25:05;;;;;;;2.28;1.05;;;12.10;63.70;;;;;;5050544;28;20082;-52
2023/01/09 12:27:55;;;;;;;0.90;0.85;;;12.20;63.30;;;;;;5045057;28;20111;-49
2023/01/09 12:30:27;;;;;;;1.30;0.75;;;12.10;63.50;;;;;;5050337;28;20111;-49
2023/01/09 12:32:57;;;;;;;2.25;0.90;;;12.20;63.70;;;;;;5045060;28;20099;-53
2023/01/09 12:35:36;;;;;;;2.63;0.90;;;12.10;63.70;;;;;;5042231;28;20630;-52
2023/01/09 12:38:28;;;;;;;1.95;0.68;;;12.10;63.70;;;;;;5043691;28;20045;-52
2023/01/09 12:41:21;;;;;;;1.25;0.80;;;12.10;63.90;;;;;;5029594;28;20505;-53
2023/01/09 12:44:29;;;;;;;1.52;0.75;;;12.10;64.60;;;;;;5045442;28;20423;-52
2023/01/09 12:47:15;;;;;;;;;;;12.00;64.50;;;;;;5043167;28;20112;-48
2023/01/09 12:50:07;;;;;;;2.45;0.90;;;12.00;64.60;;;;;;5039563;28;19929;-51
2023/01/09 12:53:02;;;;;;;2.85;1.42;;;12.00;64.50;;;;;;5042898;28;20056;-53
2023/01/09 12:55:34;;;;;;;4.70;1.08;;;11.90;64.70;;;;;;5044957;28;20477;-49
2023/01/09 12:58:31;;;;;;;1.90;0.93;;;11.90;64.60;;;;;;5040222;28;20061;-51
2023/01/09 13:01:03;;;;;;;1.52;1.00;;;11.90;64.70;;;;;;5045707;28;20417;-52
2023/01/09 13:03:58;;;;;;;1.10;1.00;;;11.90;64.70;;;;;;5047844;28;20083;-50
2023/01/09 13:06:28;;;;;;;3.45;0.90;;;11.90;64.80;;;;;;5048636;28;20041;-53
2023/01/09 13:09:04;;;;;;;2.00;1.10;;;11.90;64.80;;;;;;5050184;28;20129;-53
2023/01/09 13:11:40;;;;;;;3.95;1.15;;;11.90;64.80;;;;;;5034972;28;20045;-53
2023/01/09 13:14:25;;;;;;;1.27;0.80;;;11.90;64.90;;;;;;5049035;28;20136;-53
2023/01/09 13:16:57;;;;;;;1.35;0.93;;;11.90;65.10;;;;;;5040502;28;20041;-52
2023/01/09 13:19:30;;;;;;;2.92;0.93;;;11.90;65.00;;;;;;5048134;28;20049;-51
2023/01/09 13:21:59;;;;;;;5.22;1.17;;;11.90;64.80;;;;;;5053993;28;20033;-50
2023/01/09 13:24:42;;;;;;;3.63;0.98;;;12.00;64.70;;;;;;5049784;28;20037;-53
2023/01/09 13:27:19;;;;;;;2.25;1.38;;;12.00;64.50;;;;;;5048854;28;20120;-48
2023/01/09 13:29:51;;;;;;;2.58;1.08;;;12.00;64.30;;;;;;5035525;28;20043;-53
2023/01/09 13:32:35;;;;;;;3.75;1.63;;;11.90;64.40;;;;;;5049257;28;20033;-53
2023/01/09 13:35:13;;;;;;;4.35;1.30;;;11.90;64.40;;;;;;5048288;28;20461;-53
2023/01/09 13:37:50;;;;;;;2.38;1.25;;;11.90;64.40;;;;;;5053635;28;20045;-48